Carteret, New Jersey
Current Conditions -  °F | °C
As of 11:55 AM on Saturday 22 Nov 2014 (Local Time) from KLDJ Reporting Station
Light Snow Light Snow  
Wind Chill: 34°   Ceiling: Unl
Heat Index: 42°   Visibility: 10mi
Dew Point: 14°   Wind: 17mph
Humidity: 32%   Direction: 280°W
Pressure: 30.42"   Gusts: 23mph
Location:  40.58°N, 74.22°W
Report Text: KLDJ 221655Z AUTO 28015G20KT 10SM -SN CLR 06/M10 A3042 RMK AO2 T00561100
Loading
Personal Weather Stations






























Interactive Weather Map New forecast layout! Learn more

10-Day Weather Forecast

Advertisements
Track Severe Weather on mobile